Time;durP1;ratioP1;P1;durP2;ratioP2;P2;SDS_P1;SDS_P2;PMS_P1;PMS_P2;Temp;Humidity;BMP_temperature;BMP_pressure;BME280_temperature;BME280_humidity;BME280_pressure;Samples;Min_cycle;Max_cycle;Signal;HPM_P1;HPM_P2
2024/03/04 00:00:00;;;;;;;19.70;10.52;;;;;;;7.49;100.00;99639.16;5167011;28;20022;-72
2024/03/04 00:02:31;;;;;;;20.25;10.15;;;;;;;7.28;100.00;99630.41;5167208;28;20121;-73
2024/03/04 00:05:01;;;;;;;19.65;9.82;;;;;;;7.28;100.00;99635.59;5168324;28;20026;-73
2024/03/04 00:07:31;;;;;;;20.65;11.02;;;;;;;7.35;100.00;99641.41;5164420;28;20033;-74
2024/03/04 00:10:02;;;;;;;21.88;11.25;;;;;;;7.60;100.00;99643.03;5169109;28;20558;-73
2024/03/04 00:12:33;;;;;;;20.73;10.88;;;;;;;7.68;100.00;99640.97;5166828;28;20030;-73
2024/03/04 00:15:04;;;;;;;20.23;10.52;;;;;;;7.68;100.00;99646.16;5168962;28;20033;-74
2024/03/04 00:17:35;;;;;;;17.90;9.25;;;;;;;7.58;100.00;99644.84;5165910;28;20105;-74
2024/03/04 00:20:06;;;;;;;14.95;8.25;;;;;;;7.39;97.25;99649.03;5168701;28;20026;-73
2024/03/04 00:22:37;;;;;;;16.08;8.48;;;;;;;7.28;98.82;99641.72;5166887;28;20041;-73
2024/03/04 00:25:14;;;;;;;16.77;8.85;;;;;;;6.96;98.66;99650.66;5152448;28;20037;-73
2024/03/04 00:27:49;;;;;;;19.35;9.55;;;;;;;6.90;100.00;99660.44;5167631;28;20487;-73
2024/03/04 00:30:19;;;;;;;16.50;9.27;;;;;;;6.97;100.00;99649.75;5163401;28;20031;-72
2024/03/04 00:32:51;;;;;;;19.08;9.82;;;;;;;7.00;100.00;99656.59;5138888;28;20040;-74
2024/03/04 00:35:21;;;;;;;20.67;9.90;;;;;;;6.92;100.00;99656.03;5165941;28;20038;-73
2024/03/04 00:37:51;;;;;;;19.00;9.32;;;;;;;6.92;100.00;99651.66;5167812;28;20043;-73
2024/03/04 00:40:23;;;;;;;19.67;9.63;;;;;;;6.82;100.00;99652.06;5164360;28;20022;-72
2024/03/04 00:42:54;;;;;;;18.77;9.30;;;;;;;7.01;100.00;99647.91;5168738;28;20022;-73
2024/03/04 00:45:25;;;;;;;19.77;9.90;;;;;;;6.74;100.00;99657.50;5165521;28;20037;-74
2024/03/04 00:47:55;;;;;;;20.50;10.10;;;;;;;6.64;100.00;99655.28;5168483;28;20038;-73
2024/03/04 00:50:26;;;;;;;20.60;10.07;;;;;;;6.62;100.00;99655.34;5164336;28;20368;-73
2024/03/04 00:52:58;;;;;;;21.48;9.23;;;;;;;6.58;100.00;99656.34;5170624;28;20061;-74
2024/03/04 00:55:29;;;;;;;20.27;9.57;;;;;;;6.56;100.00;99659.91;5167476;28;20495;-73
2024/03/04 00:57:59;;;;;;;20.50;10.20;;;;;;;6.49;100.00;99651.47;5168646;28;20049;-74
2024/03/04 01:00:29;;;;;;;21.73;10.57;;;;;;;6.43;100.00;99653.44;5159801;28;20022;-73
2024/03/04 01:03:00;;;;;;;21.70;10.30;;;;;;;6.56;100.00;99660.75;5159726;28;20407;-73
2024/03/04 01:05:31;;;;;;;20.80;9.52;;;;;;;6.39;100.00;99664.81;5164129;28;20019;-73
2024/03/04 01:08:01;;;;;;;18.80;9.93;;;;;;;6.27;100.00;99665.22;5168737;28;20021;-74
2024/03/04 01:10:32;;;;;;;20.15;9.73;;;;;;;6.33;100.00;99665.00;5164393;28;20105;-73
2024/03/04 01:13:03;;;;;;;18.33;9.73;;;;;;;6.32;100.00;99655.53;5160423;28;20050;-73
2024/03/04 01:15:35;;;;;;;19.10;9.57;;;;;;;6.27;100.00;99654.84;5160793;28;20125;-73
2024/03/04 01:18:07;;;;;;;19.83;10.13;;;;;;;6.11;100.00;99667.44;5164016;28;20022;-73
2024/03/04 01:20:46;;;;;;;17.73;9.52;;;;;;;6.17;100.00;99669.00;5162215;28;20173;-73
2024/03/04 01:23:17;;;;;;;20.63;9.85;;;;;;;6.20;100.00;99671.47;5159477;28;20065;-74
2024/03/04 01:25:47;;;;;;;21.83;10.38;;;;;;;6.25;100.00;99672.22;5158869;28;20062;-73
2024/03/04 01:28:17;;;;;;;19.48;10.55;;;;;;;6.10;100.00;99673.53;5162779;28;20033;-73
2024/03/04 01:30:49;;;;;;;17.65;9.85;;;;;;;6.05;100.00;99659.88;5164807;28;20072;-74
2024/03/04 01:33:20;;;;;;;22.90;9.60;;;;;;;6.03;100.00;99671.19;5144108;28;20157;-73
2024/03/04 01:35:50;;;;;;;21.73;10.75;;;;;;;6.10;100.00;99670.09;5159431;28;20567;-73
2024/03/04 01:38:20;;;;;;;20.13;10.70;;;;;;;5.96;100.00;99661.91;5164220;28;20097;-73
2024/03/04 01:40:50;;;;;;;20.67;9.68;;;;;;;6.01;100.00;99672.97;5164409;28;20075;-73
2024/03/04 01:43:21;;;;;;;20.48;10.35;;;;;;;5.98;100.00;99678.25;5162082;28;20723;-73
2024/03/04 01:45:51;;;;;;;23.48;10.38;;;;;;;6.12;100.00;99673.50;5159977;28;20026;-73
2024/03/04 01:48:22;;;;;;;22.67;10.80;;;;;;;6.31;100.00;99674.59;5162063;28;20038;-73
2024/03/04 01:50:56;;;;;;;18.83;9.52;;;;;;;6.27;100.00;99671.22;5159875;28;20037;-73
2024/03/04 01:53:28;;;;;;;17.58;8.88;;;;;;;6.19;100.00;99673.25;5159988;28;20026;-71
2024/03/04 01:56:04;;;;;;;16.67;9.05;;;;;;;6.14;99.64;99679.47;5143984;28;20037;-73
2024/03/04 01:58:41;;;;;;;18.17;9.68;;;;;;;5.88;100.00;99677.69;5148452;28;20041;-73
2024/03/04 02:01:11;;;;;;;20.45;10.02;;;;;;;5.85;100.00;99687.31;5159179;28;20057;-74
2024/03/04 02:03:42;;;;;;;17.20;8.35;;;;;;;5.94;100.00;99687.03;5162530;28;20518;-74
2024/03/04 02:06:14;;;;;;;20.00;10.80;;;;;;;5.84;100.00;99685.63;5144482;28;20453;-73
2024/03/04 02:08:44;;;;;;;19.42;9.70;;;;;;;5.63;100.00;99691.44;5159751;28;20032;-73
2024/03/04 02:11:15;;;;;;;18.98;9.85;;;;;;;5.62;100.00;99695.78;5162762;28;20022;-74
2024/03/04 02:13:46;;;;;;;21.35;10.57;;;;;;;5.67;100.00;99698.22;5160724;28;20053;-73
2024/03/04 02:16:17;;;;;;;19.85;9.57;;;;;;;5.77;100.00;99699.63;5161530;28;20045;-74
2024/03/04 02:18:47;;;;;;;20.38;10.18;;;;;;;5.54;100.00;99696.91;5161376;28;20494;-73
2024/03/04 02:21:21;;;;;;;18.38;9.60;;;;;;;5.58;100.00;99706.28;5160552;28;20523;-73
2024/03/04 02:23:51;;;;;;;22.48;10.32;;;;;;;5.73;100.00;99708.41;5157549;28;20514;-73
2024/03/04 02:26:22;;;;;;;19.58;10.73;;;;;;;5.47;100.00;99705.72;5160353;28;20026;-73
2024/03/04 02:28:52;;;;;;;24.02;9.82;;;;;;;5.45;100.00;99712.69;5162806;28;20061;-73
2024/03/04 02:31:23;;;;;;;22.17;10.77;;;;;;;5.55;100.00;99706.38;5145924;28;20034;-73
2024/03/04 02:33:53;;;;;;;19.38;10.35;;;;;;;5.77;100.00;99704.81;5162266;28;20026;-73
2024/03/04 02:36:24;;;;;;;25.08;10.80;;;;;;;5.64;100.00;99714.72;5162088;28;20045;-73
2024/03/04 02:38:54;;;;;;;22.88;10.48;;;;;;;5.52;100.00;99709.03;5162565;28;20014;-73
2024/03/04 02:41:28;;;;;;;20.23;10.50;;;;;;;5.58;100.00;99708.88;5160516;28;20104;-73
2024/03/04 02:43:58;;;;;;;23.77;10.43;;;;;;;5.79;100.00;99710.84;5161832;28;20026;-73
2024/03/04 02:46:28;;;;;;;22.13;10.93;;;;;;;5.69;100.00;99711.97;5161545;28;20105;-74
2024/03/04 02:48:59;;;;;;;21.98;10.30;;;;;;;5.62;100.00;99716.50;5160488;28;20124;-73
2024/03/04 02:51:29;;;;;;;20.25;10.95;;;;;;;5.61;100.00;99719.97;5162327;28;20070;-73
2024/03/04 02:53:59;;;;;;;21.83;11.52;;;;;;;5.52;100.00;99721.97;5160927;28;20033;-73
2024/03/04 02:56:30;;;;;;;22.17;11.10;;;;;;;5.48;100.00;99722.97;5162218;28;20066;-73
2024/03/04 02:59:00;;;;;;;20.70;10.43;;;;;;;5.36;100.00;99727.66;5161159;28;20104;-73
2024/03/04 03:01:31;;;;;;;22.20;10.15;;;;;;;5.34;100.00;99726.84;5161266;28;20018;-73
2024/03/04 03:04:01;;;;;;;21.73;10.40;;;;;;;5.62;100.00;99726.00;5163110;28;20037;-73
2024/03/04 03:06:32;;;;;;;20.33;10.00;;;;;;;5.67;100.00;99725.00;5164974;28;20033;-73
2024/03/04 03:09:05;;;;;;;18.45;9.38;;;;;;;5.28;100.00;99730.44;5165880;28;20041;-73
2024/03/04 03:11:35;;;;;;;18.58;9.07;;;;;;;5.28;100.00;99735.63;5165459;28;20030;-72
2024/03/04 03:14:05;;;;;;;19.77;9.02;;;;;;;5.09;100.00;99733.56;5166657;28;20550;-73
2024/03/04 03:16:36;;;;;;;16.83;8.77;;;;;;;5.00;100.00;99745.03;5164472;28;20029;-72
2024/03/04 03:19:06;;;;;;;17.40;8.50;;;;;;;5.22;100.00;99737.53;5167454;28;20041;-73
2024/03/04 03:21:36;;;;;;;18.45;8.52;;;;;;;5.25;100.00;99756.44;5167649;28;20038;-73
2024/03/04 03:24:07;;;;;;;20.48;9.23;;;;;;;5.26;100.00;99747.78;5166740;28;20038;-73
2024/03/04 03:26:38;;;;;;;17.13;8.77;;;;;;;5.02;100.00;99761.41;5163455;28;20109;-73
2024/03/04 03:29:09;;;;;;;18.77;9.65;;;;;;;5.04;100.00;99762.22;5164517;28;20026;-73
2024/03/04 03:31:39;;;;;;;21.08;10.20;;;;;;;5.09;100.00;99755.16;5167316;28;20194;-73
2024/03/04 03:34:10;;;;;;;23.83;10.80;;;;;;;5.10;100.00;99753.41;5167461;28;20040;-73
2024/03/04 03:36:41;;;;;;;23.08;10.63;;;;;;;5.16;100.00;99754.09;5166266;28;20022;-74
2024/03/04 03:39:15;;;;;;;21.55;10.57;;;;;;;5.19;100.00;99761.78;5165308;28;20053;-73
2024/03/04 03:41:46;;;;;;;24.35;10.95;;;;;;;5.01;100.00;99771.78;5166569;28;20022;-73
2024/03/04 03:44:16;;;;;;;20.42;10.27;;;;;;;4.89;100.00;99772.09;5206887;23;20499;-75
2024/03/04 03:46:46;;;;;;;20.40;10.65;;;;;;;4.83;100.00;99772.25;5204735;28;20056;-76
2024/03/04 03:49:17;;;;;;;17.90;9.18;;;;;;;4.66;100.00;99774.41;5204958;28;20025;-76
2024/03/04 03:51:47;;;;;;;17.98;9.10;;;;;;;4.71;100.00;99773.44;5198008;28;20033;-76
2024/03/04 03:54:17;;;;;;;18.50;8.85;;;;;;;4.56;100.00;99773.78;5196923;28;20116;-76
2024/03/04 03:56:47;;;;;;;16.20;8.52;;;;;;;4.71;100.00;99775.16;5193584;28;20065;-76
2024/03/04 03:59:18;;;;;;;19.33;8.88;;;;;;;4.82;100.00;99776.56;5191363;28;20384;-75
2024/03/04 04:01:48;;;;;;;18.75;9.52;;;;;;;4.73;100.00;99781.13;5191477;28;20025;-75
2024/03/04 04:04:18;;;;;;;19.75;10.10;;;;;;;4.60;100.00;99780.59;5195677;28;20064;-76
2024/03/04 04:06:49;;;;;;;18.08;9.23;;;;;;;4.59;100.00;99793.56;5189724;28;20028;-76
2024/03/04 04:09:20;;;;;;;17.45;8.27;;;;;;;4.67;100.00;99792.47;5194150;28;20460;-75
2024/03/04 04:11:50;;;;;;;19.60;10.10;;;;;;;4.49;100.00;99798.09;5194556;28;20433;-75
2024/03/04 04:14:20;;;;;;;16.02;7.85;;;;;;;4.57;100.00;99801.38;5194450;28;20037;-75
2024/03/04 04:16:51;;;;;;;14.27;7.53;;;;;;;4.72;100.00;99806.19;5190012;28;20035;-75
2024/03/04 04:19:22;;;;;;;16.48;8.10;;;;;;;4.60;100.00;99800.47;5196050;28;20037;-75
2024/03/04 04:21:52;;;;;;;16.80;7.65;;;;;;;4.54;100.00;99811.78;5194701;28;20033;-75
2024/03/04 04:24:23;;;;;;;14.82;7.97;;;;;;;4.39;100.00;99812.16;5194477;28;20021;-75
2024/03/04 04:26:53;;;;;;;15.57;8.43;;;;;;;4.49;100.00;99808.44;5195425;28;20071;-75
2024/03/04 04:29:24;;;;;;;18.77;8.48;;;;;;;4.57;100.00;99803.09;5191855;28;20076;-75
2024/03/04 04:31:55;;;;;;;22.92;10.60;;;;;;;4.63;100.00;99805.53;5196076;28;20028;-76
2024/03/04 04:34:25;;;;;;;20.92;10.30;;;;;;;4.73;100.00;99797.53;5195142;28;20095;-75
2024/03/04 04:36:57;;;;;;;21.08;9.95;;;;;;;4.77;100.00;99814.66;5178208;28;20203;-75
2024/03/04 04:39:27;;;;;;;25.27;10.70;;;;;;;4.67;100.00;99812.34;5176481;28;20548;-75
2024/03/04 04:41:58;;;;;;;21.52;9.45;;;;;;;4.64;100.00;99813.25;5192819;28;20037;-76
2024/03/04 04:44:28;;;;;;;22.58;8.95;;;;;;;4.79;100.00;99818.06;5197572;28;20120;-75
2024/03/04 04:46:59;;;;;;;20.25;8.32;;;;;;;4.47;100.00;99822.31;5192411;28;20049;-75
2024/03/04 04:49:29;;;;;;;20.40;8.40;;;;;;;4.69;100.00;99831.25;5193584;28;20125;-75
2024/03/04 04:52:00;;;;;;;16.55;7.38;;;;;;;4.78;100.00;99828.47;5193100;28;20037;-75
2024/03/04 04:54:30;;;;;;;17.20;8.13;;;;;;;4.56;100.00;99833.31;5178428;28;20025;-75
2024/03/04 04:57:00;;;;;;;19.52;9.07;;;;;;;4.79;100.00;99831.00;5194556;28;20196;-75
2024/03/04 04:59:31;;;;;;;23.70;8.85;;;;;;;4.78;100.00;99838.81;5189802;28;20414;-75
2024/03/04 05:02:01;;;;;;;18.40;8.07;;;;;;;4.62;100.00;99840.91;5196065;28;20116;-76
2024/03/04 05:04:32;;;;;;;23.70;9.20;;;;;;;4.42;100.00;99843.09;5195724;28;20049;-75
2024/03/04 05:07:02;;;;;;;27.38;10.07;;;;;;;4.37;100.00;99842.38;5193081;28;20060;-75
2024/03/04 05:09:33;;;;;;;21.60;8.57;;;;;;;4.22;100.00;99855.63;5194804;28;20542;-75
2024/03/04 05:12:03;;;;;;;15.90;7.45;;;;;;;4.18;100.00;99847.97;5195503;28;20040;-76
2024/03/04 05:14:34;;;;;;;17.00;7.50;;;;;;;4.02;100.00;99857.81;5194132;28;20021;-75
2024/03/04 05:17:04;;;;;;;17.70;7.90;;;;;;;4.37;100.00;99846.69;5193455;28;20037;-75
2024/03/04 05:19:36;;;;;;;15.32;7.05;;;;;;;4.39;100.00;99853.53;5195748;28;20237;-76
2024/03/04 05:22:08;;;;;;;17.17;7.55;;;;;;;4.35;100.00;99851.03;5195042;28;20034;-75
2024/03/04 05:24:38;;;;;;;20.75;8.32;;;;;;;4.16;100.00;99862.66;5195180;28;20391;-75
2024/03/04 05:27:08;;;;;;;22.27;8.50;;;;;;;4.09;100.00;99856.78;5195419;28;20034;-76
2024/03/04 05:29:39;;;;;;;22.95;8.85;;;;;;;4.01;100.00;99860.41;5175871;28;20204;-75
2024/03/04 05:32:09;;;;;;;17.63;8.27;;;;;;;4.30;100.00;99855.47;5196122;28;20021;-75
2024/03/04 05:34:40;;;;;;;19.38;8.75;;;;;;;4.19;100.00;99866.03;5196479;28;20033;-76
2024/03/04 05:37:11;;;;;;;26.83;10.13;;;;;;;4.17;100.00;99867.81;5194158;28;20025;-75
2024/03/04 05:39:46;;;;;;;24.23;10.48;;;;;;;4.23;100.00;99872.84;5195924;28;20394;-75
2024/03/04 05:42:16;;;;;;;21.77;10.75;;;;;;;4.28;100.00;99875.34;5191868;28;20096;-75
2024/03/04 05:44:47;;;;;;;20.77;10.48;;;;;;;4.43;100.00;99870.66;5194723;28;20724;-75
2024/03/04 05:47:17;;;;;;;24.85;10.57;;;;;;;4.47;100.00;99876.63;5189742;28;20269;-75
2024/03/04 05:49:47;;;;;;;26.90;10.27;;;;;;;4.12;100.00;99890.31;5195523;28;20036;-75
2024/03/04 05:52:18;;;;;;;19.38;9.98;;;;;;;4.25;100.00;99894.34;5194974;28;20449;-75
2024/03/04 05:54:48;;;;;;;24.83;10.73;;;;;;;4.39;100.00;99897.50;5177746;28;20391;-76
2024/03/04 05:57:18;;;;;;;26.58;10.10;;;;;;;4.40;100.00;99896.59;5194726;28;20056;-75
2024/03/04 05:59:49;;;;;;;22.92;10.43;;;;;;;4.53;100.00;99897.19;5193832;28;20116;-75
2024/03/04 06:02:19;;;;;;;27.48;10.80;;;;;;;4.32;100.00;99895.91;5196229;28;20576;-75
2024/03/04 06:04:49;;;;;;;23.20;10.63;;;;;;;4.24;100.00;99904.72;5192784;28;20030;-76
2024/03/04 06:07:20;;;;;;;23.63;10.98;;;;;;;4.34;100.00;99907.09;5178554;28;20033;-76
2024/03/04 06:09:50;;;;;;;22.95;11.88;;;;;;;4.53;100.00;99907.53;5194382;28;20025;-74
2024/03/04 06:12:20;;;;;;;29.67;12.05;;;;;;;4.59;100.00;99897.91;5196056;28;20021;-75
2024/03/04 06:14:51;;;;;;;23.48;11.70;;;;;;;4.57;100.00;99898.81;5196264;28;20406;-73
2024/03/04 06:17:21;;;;;;;30.65;12.18;;;;;;;4.64;100.00;99911.56;5195484;28;20494;-75
2024/03/04 06:19:51;;;;;;;22.23;11.90;;;;;;;4.74;100.00;99910.50;5195565;28;20025;-74
2024/03/04 06:22:22;;;;;;;24.65;11.68;;;;;;;4.71;100.00;99917.47;5195767;28;20044;-76
2024/03/04 06:24:52;;;;;;;26.38;12.07;;;;;;;4.80;100.00;99923.28;5195373;28;20031;-74
2024/03/04 06:27:24;;;;;;;27.38;12.32;;;;;;;5.05;100.00;99932.19;5196415;28;20025;-75
2024/03/04 06:29:54;;;;;;;24.75;12.02;;;;;;;5.12;100.00;99931.16;5194231;28;20491;-75
2024/03/04 06:32:25;;;;;;;23.38;11.60;;;;;;;5.17;100.00;99944.00;5196069;28;20041;-75
2024/03/04 06:34:57;;;;;;;22.73;12.18;;;;;;;5.06;100.00;99943.38;5194274;28;20053;-75
2024/03/04 06:37:28;;;;;;;38.08;13.38;;;;;;;4.85;100.00;99946.47;5189553;28;20029;-75
2024/03/04 06:39:58;;;;;;;24.15;13.35;;;;;;;4.90;100.00;99950.69;5187830;28;20018;-76
2024/03/04 06:42:28;;;;;;;21.15;12.60;;;;;;;5.09;100.00;99961.44;5194198;28;20036;-75
2024/03/04 06:44:59;;;;;;;30.55;13.15;;;;;;;4.74;100.00;99966.56;5178874;28;20025;-75
2024/03/04 06:47:29;;;;;;;28.13;12.73;;;;;;;4.83;100.00;99964.63;5193562;28;20025;-76
2024/03/04 06:50:00;;;;;;;30.23;13.07;;;;;;;4.99;100.00;99965.97;5193902;28;20071;-75
2024/03/04 06:52:30;;;;;;;20.92;12.25;;;;;;;5.41;100.00;99960.63;5192481;28;20032;-75
2024/03/04 06:55:00;;;;;;;27.90;13.82;;;;;;;5.36;100.00;99964.22;5199163;28;20017;-75
2024/03/04 06:57:31;;;;;;;26.75;12.90;;;;;;;5.17;100.00;99968.13;5195391;28;20032;-76
2024/03/04 07:00:04;;;;;;;24.27;13.73;;;;;;;5.47;100.00;99970.88;5185214;28;20021;-76
2024/03/04 07:02:34;;;;;;;27.27;13.82;;;;;;;5.59;100.00;99969.69;5175181;28;20088;-75
2024/03/04 07:05:06;;;;;;;30.67;14.35;;;;;;;5.72;100.00;99971.09;5185346;28;20423;-75
2024/03/04 07:07:36;;;;;;;27.52;13.27;;;;;;;5.92;100.00;99963.69;5188935;28;20033;-75
2024/03/04 07:10:07;;;;;;;26.30;11.88;;;;;;;5.93;100.00;99971.41;5190582;28;20043;-75
2024/03/04 07:12:38;;;;;;;24.77;11.88;;;;;;;5.94;100.00;99974.84;5189091;28;20087;-76
2024/03/04 07:15:09;;;;;;;27.02;11.95;;;;;;;6.08;100.00;99976.19;5169054;28;20034;-75
2024/03/04 07:17:39;;;;;;;18.73;12.05;;;;;;;5.97;100.00;99982.53;5192512;28;20296;-75
2024/03/04 07:20:10;;;;;;;19.45;12.45;;;;;;;6.18;100.00;99976.78;5194140;28;20034;-75
2024/03/04 07:22:40;;;;;;;24.70;13.25;;;;;;;6.27;100.00;99979.97;5190090;28;20473;-76
2024/03/04 07:25:11;;;;;;;20.05;12.15;;;;;;;6.47;100.00;99979.41;5189094;28;20371;-75
2024/03/04 07:27:41;;;;;;;23.20;12.27;;;;;;;6.14;100.00;99991.59;5195667;28;20410;-75
2024/03/04 07:30:12;;;;;;;20.15;11.75;;;;;;;6.21;100.00;99987.06;5192156;28;20113;-75
2024/03/04 07:32:42;;;;;;;26.55;11.90;;;;;;;6.06;100.00;99993.53;5189093;28;20049;-75
2024/03/04 07:35:13;;;;;;;21.52;12.20;;;;;;;6.49;100.00;99991.47;5191553;28;20124;-75
2024/03/04 07:37:43;;;;;;;22.00;12.55;;;;;;;6.54;100.00;99991.31;5195623;28;20030;-75
2024/03/04 07:40:13;;;;;;;26.90;10.95;;;;;;;6.38;100.00;99995.22;5187208;28;20028;-75
2024/03/04 07:42:44;;;;;;;21.05;10.63;;;;;;;6.24;100.00;99999.97;5192792;28;20402;-75
2024/03/04 07:45:14;;;;;;;25.60;12.15;;;;;;;6.39;100.00;100002.16;5186060;28;20063;-75
2024/03/04 07:47:44;;;;;;;19.55;11.95;;;;;;;6.75;100.00;100006.28;5175960;28;20108;-75
2024/03/04 07:50:15;;;;;;;20.63;11.52;;;;;;;6.86;100.00;99999.00;5185814;28;20067;-75
2024/03/04 07:52:47;;;;;;;21.20;12.38;;;;;;;6.96;100.00;100003.03;5187344;28;20175;-75
2024/03/04 07:55:17;;;;;;;21.42;11.23;;;;;;;6.85;100.00;100002.50;5185476;28;20060;-75
2024/03/04 07:57:50;;;;;;;20.40;10.85;;;;;;;6.87;100.00;100011.97;5191074;28;20283;-75
2024/03/04 08:00:20;;;;;;;17.58;11.18;;;;;;;7.07;100.00;100011.38;5181688;28;20124;-75
2024/03/04 08:02:50;;;;;;;19.90;10.50;;;;;;;6.92;100.00;100015.25;5193634;28;20116;-75
2024/03/04 08:05:21;;;;;;;30.02;11.23;;;;;;;6.66;100.00;100016.91;5192637;28;20053;-75
2024/03/04 08:07:51;;;;;;;22.40;11.18;;;;;;;6.78;100.00;100014.81;5192046;28;20117;-76
2024/03/04 08:10:22;;;;;;;27.27;12.35;;;;;;;6.94;100.00;100026.44;5195776;28;20068;-75
2024/03/04 08:12:52;;;;;;;18.30;11.07;;;;;;;7.36;100.00;100020.78;5196478;28;20035;-75
2024/03/04 08:15:22;;;;;;;20.25;11.35;;;;;;;7.31;100.00;100025.28;5196685;28;20029;-75
2024/03/04 08:17:53;;;;;;;21.90;10.15;;;;;;;7.13;100.00;100016.38;5196846;28;20393;-75
2024/03/04 08:20:23;;;;;;;22.58;11.15;;;;;;;7.14;100.00;100021.50;5195164;28;20025;-75
2024/03/04 08:22:53;;;;;;;22.23;10.35;;;;;;;7.21;100.00;100017.84;5197381;28;20063;-75
2024/03/04 08:25:24;;;;;;;17.40;10.25;;;;;;;7.53;100.00;100020.28;5195273;28;20554;-75
2024/03/04 08:27:55;;;;;;;18.13;10.68;;;;;;;7.72;100.00;100026.56;5196849;28;20083;-76
2024/03/04 08:30:25;;;;;;;15.63;9.27;;;;;;;7.43;100.00;100021.47;5192245;28;20030;-76
2024/03/04 08:32:55;;;;;;;16.85;10.20;;;;;;;7.70;100.00;100025.78;5197855;28;20044;-75
2024/03/04 08:35:27;;;;;;;16.27;10.25;;;;;;;7.90;100.00;100034.59;5196190;28;20025;-75
2024/03/04 08:37:57;;;;;;;16.80;11.07;;;;;;;8.04;100.00;100023.75;5198201;28;20033;-75
2024/03/04 08:40:30;;;;;;;18.15;10.80;;;;;;;7.91;100.00;100033.69;5194674;28;20498;-75
2024/03/04 08:43:00;;;;;;;24.48;10.75;;;;;;;7.86;100.00;100033.00;5190993;28;20033;-75
2024/03/04 08:45:30;;;;;;;22.30;11.55;;;;;;;8.19;100.00;100029.31;5194433;28;20629;-75
2024/03/04 08:48:01;;;;;;;23.80;11.93;;;;;;;7.78;100.00;100032.44;5196359;28;20037;-75
2024/03/04 08:50:31;;;;;;;18.33;11.45;;;;;;;8.19;100.00;100029.31;5196120;28;20026;-75
2024/03/04 08:53:02;;;;;;;21.42;11.27;;;;;;;8.23;100.00;100036.09;5197272;28;20033;-76
2024/03/04 08:55:32;;;;;;;29.50;11.63;;;;;;;8.28;100.00;100034.19;5197068;28;20426;-75
2024/03/04 08:58:02;;;;;;;27.80;11.13;;;;;;;8.14;100.00;100030.31;5196304;28;20722;-75
2024/03/04 09:00:33;;;;;;;20.08;10.93;;;;;;;8.29;100.00;100024.63;5193671;28;20053;-75
2024/03/04 09:03:03;;;;;;;22.58;11.10;;;;;;;8.16;100.00;100031.97;5180719;28;20030;-75
2024/03/04 09:05:34;;;;;;;17.88;10.70;;;;;;;8.30;100.00;100027.19;5196319;28;20479;-75
2024/03/04 09:08:05;;;;;;;18.88;11.90;;;;;;;8.47;100.00;100026.56;5198693;28;20029;-75
2024/03/04 09:10:35;;;;;;;20.45;11.38;;;;;;;8.43;100.00;100038.88;5196950;28;20025;-75
2024/03/04 09:13:05;;;;;;;25.83;11.43;;;;;;;8.44;100.00;100043.19;5196915;28;20033;-75
2024/03/04 09:15:36;;;;;;;24.75;12.00;;;;;;;8.26;100.00;100043.81;5195205;28;20434;-75
2024/03/04 09:18:07;;;;;;;19.88;12.63;;;;;;;8.46;100.00;100046.56;5197446;28;20029;-75
2024/03/04 09:20:37;;;;;;;20.45;11.80;;;;;;;8.70;100.00;100044.84;5196388;28;20506;-75
2024/03/04 09:23:07;;;;;;;18.10;11.10;;;;;;;8.53;100.00;100045.44;5197365;28;20040;-75
2024/03/04 09:25:38;;;;;;;19.42;11.45;;;;;;;8.60;100.00;100046.94;5196795;28;20033;-75
2024/03/04 09:28:08;;;;;;;21.05;12.13;;;;;;;8.75;100.00;100046.34;5180580;28;20075;-75
2024/03/04 09:30:41;;;;;;;19.17;12.13;;;;;;;8.76;100.00;100048.03;5192158;28;20057;-75
2024/03/04 09:33:11;;;;;;;19.15;11.50;;;;;;;8.79;100.00;100053.16;5196745;28;20038;-75
2024/03/04 09:35:42;;;;;;;24.10;13.13;;;;;;;8.98;100.00;100059.41;5197466;28;20414;-75
2024/03/04 09:38:12;;;;;;;21.67;13.18;;;;;;;8.95;100.00;100051.69;5186868;28;20037;-76
2024/03/04 09:40:45;;;;;;;26.40;13.40;;;;;;;8.72;100.00;100064.69;5194225;28;20024;-76
2024/03/04 09:43:16;;;;;;;22.08;12.45;;;;;;;8.90;100.00;100056.22;5196101;28;20518;-75
2024/03/04 09:45:50;;;;;;;22.70;13.93;;;;;;;9.05;100.00;100060.03;5188000;23;20116;-74
2024/03/04 09:48:22;;;;;;;24.00;14.38;;;;;;;8.89;100.00;100058.88;5163024;28;20084;-73
2024/03/04 09:50:56;;;;;;;30.70;18.55;;;;;;;9.05;100.00;100066.06;5167301;28;20399;-74
2024/03/04 09:53:27;;;;;;;25.67;15.48;;;;;;;9.08;100.00;100062.50;5166494;28;20022;-74
2024/03/04 09:55:58;;;;;;;21.75;13.57;;;;;;;9.11;100.00;100055.44;5168262;28;20111;-74
2024/03/04 09:58:29;;;;;;;24.67;14.40;;;;;;;9.13;100.00;100054.44;5165246;28;20023;-74
2024/03/04 10:01:00;;;;;;;24.90;14.88;;;;;;;9.14;100.00;100060.53;5164753;28;20519;-74
2024/03/04 10:03:31;;;;;;;28.60;15.82;;;;;;;9.17;100.00;100058.63;5161786;28;20018;-74
2024/03/04 10:06:03;;;;;;;27.20;14.75;;;;;;;9.21;100.00;100062.84;5162539;28;20048;-74
2024/03/04 10:08:33;;;;;;;27.10;15.48;;;;;;;9.32;100.00;100054.59;5161147;28;20129;-74
2024/03/04 10:11:04;;;;;;;28.90;16.17;;;;;;;9.57;100.00;100055.31;5163383;28;20124;-74
2024/03/04 10:13:34;;;;;;;27.90;15.73;;;;;;;9.48;100.00;100063.53;5146466;28;20559;-74
2024/03/04 10:16:09;;;;;;;31.42;16.92;;;;;;;9.33;100.00;100070.16;5170641;28;20026;-74
2024/03/04 10:18:39;;;;;;;26.55;16.05;;;;;;;9.44;100.00;100080.19;5170453;28;20067;-74
2024/03/04 10:21:10;;;;;;;28.80;16.77;;;;;;;9.41;100.00;100080.31;5172590;28;20026;-74
2024/03/04 10:23:41;;;;;;;28.08;17.00;;;;;;;9.26;100.00;100078.28;5154771;28;20035;-74
2024/03/04 10:26:11;;;;;;;27.60;16.10;;;;;;;9.41;100.00;100085.53;5168904;28;20084;-74
2024/03/04 10:28:42;;;;;;;31.70;17.63;;;;;;;9.52;100.00;100088.56;5171947;28;20210;-74
2024/03/04 10:31:14;;;;;;;32.55;18.08;;;;;;;9.46;100.00;100079.22;5169862;28;20038;-74
2024/03/04 10:33:45;;;;;;;60.47;28.15;;;;;;;9.62;100.00;100084.72;5168802;28;20037;-74
2024/03/04 10:36:17;;;;;;;33.30;19.27;;;;;;;9.62;100.00;100079.50;5166932;28;20476;-73
2024/03/04 10:38:47;;;;;;;31.13;18.13;;;;;;;9.68;100.00;100080.06;5166740;28;20058;-74
2024/03/04 10:41:19;;;;;;;30.30;17.48;;;;;;;9.57;100.00;100078.81;5164044;28;20506;-74
2024/03/04 10:43:53;;;;;;;31.38;17.75;;;;;;;9.63;100.00;100076.81;5166770;28;20437;-74
2024/03/04 10:46:24;;;;;;;32.55;19.00;;;;;;;9.79;100.00;100082.28;5161232;28;20439;-74
2024/03/04 10:48:55;;;;;;;42.42;23.02;;;;;;;9.96;100.00;100082.44;5153179;28;20030;-74
2024/03/04 10:51:28;;;;;;;29.70;17.70;;;;;;;9.80;100.00;100089.19;5160881;28;20028;-74
2024/03/04 10:53:59;;;;;;;37.75;20.15;;;;;;;9.89;100.00;100080.97;5163012;28;20550;-74
2024/03/04 10:56:32;;;;;;;32.08;18.35;;;;;;;9.82;100.00;100095.19;5155486;28;20324;-74
2024/03/04 10:59:06;;;;;;;31.75;18.42;;;;;;;9.88;100.00;100093.19;5161568;28;20410;-74
2024/03/04 11:01:36;;;;;;;31.08;17.40;;;;;;;10.01;100.00;100091.78;5162405;28;20022;-74
2024/03/04 11:04:07;;;;;;;33.05;18.17;;;;;;;10.04;100.00;100094.31;5161243;28;20499;-74
2024/03/04 11:06:38;;;;;;;33.88;20.05;;;;;;;10.15;100.00;100102.53;5154999;28;20161;-74
2024/03/04 11:09:12;;;;;;;34.60;18.80;;;;;;;10.19;100.00;100103.25;5145038;28;20415;-74
2024/03/04 11:11:47;;;;;;;33.90;18.35;;;;;;;10.24;100.00;100102.16;5162033;28;20913;-74
2024/03/04 11:14:29;;;;;;;32.20;19.38;;;;;;;10.31;100.00;100093.13;5161036;28;20117;-74
2024/03/04 11:17:11;;;;;;;33.85;19.63;;;;;;;10.25;100.00;100105.59;5161842;28;20018;-74
2024/03/04 11:20:09;;;;;;;35.22;19.88;;;;;;;10.26;100.00;100099.47;5161148;28;20022;-74
2024/03/04 11:22:41;;;;;;;35.20;19.20;;;;;;;10.46;100.00;100097.72;5159075;28;20042;-74
2024/03/04 11:25:14;;;;;;;69.15;33.60;;;;;;;10.34;100.00;100102.63;5160649;28;20228;-74
2024/03/04 11:27:45;;;;;;;68.95;35.97;;;;;;;10.30;100.00;100109.72;5146605;28;20033;-74
2024/03/04 11:30:16;;;;;;;38.88;19.95;;;;;;;10.34;100.00;100098.22;5158713;28;20391;-74
2024/03/04 11:32:47;;;;;;;36.42;19.73;;;;;;;10.25;100.00;100113.44;5160489;28;20030;-74